createdAt,value
2023-12-09T00:02:27.300Z,106.90
2023-12-09T00:04:56.422Z,111.72
2023-12-09T00:07:24.560Z,117.78
2023-12-09T00:09:52.097Z,109.97
2023-12-09T00:12:19.691Z,123.93
2023-12-09T00:14:47.223Z,124.72
2023-12-09T00:17:14.825Z,107.65
2023-12-09T00:19:43.756Z,123.53
2023-12-09T00:22:12.667Z,115.20
2023-12-09T00:24:40.252Z,113.07
2023-12-09T00:27:07.799Z,116.43
2023-12-09T00:29:35.367Z,115.50
2023-12-09T00:32:02.925Z,122.35
2023-12-09T00:34:30.472Z,111.60
2023-12-09T00:36:58.026Z,116.32
2023-12-09T00:39:26.977Z,111.70
2023-12-09T00:41:54.592Z,107.82
2023-12-09T00:44:22.443Z,105.30
2023-12-09T00:46:52.408Z,101.55
2023-12-09T00:49:20.212Z,102.47
2023-12-09T00:51:47.824Z,112.22
2023-12-09T00:54:15.466Z,113.25
2023-12-09T00:56:44.363Z,106.50
2023-12-09T00:59:11.937Z,112.60
2023-12-09T01:01:39.486Z,115.22
2023-12-09T01:04:07.840Z,104.72
2023-12-09T01:06:35.465Z,109.15
2023-12-09T01:09:03.029Z,97.80
2023-12-09T01:11:30.765Z,97.95
2023-12-09T01:13:59.621Z,88.38
2023-12-09T01:16:27.200Z,101.40
2023-12-09T01:18:54.935Z,84.78
2023-12-09T01:21:22.610Z,80.90
2023-12-09T01:23:50.312Z,83.35
2023-12-09T01:26:18.004Z,96.30
2023-12-09T01:28:45.682Z,95.38
2023-12-09T01:31:14.549Z,88.03
2023-12-09T01:33:42.237Z,90.13
2023-12-09T01:36:10.513Z,78.78
2023-12-09T01:38:38.182Z,77.13
2023-12-09T01:41:06.001Z,86.05
2023-12-09T01:43:33.580Z,91.20
2023-12-09T01:46:07.014Z,95.57
2023-12-09T01:48:37.275Z,88.18
2023-12-09T01:51:06.366Z,99.43
2023-12-09T01:53:34.064Z,107.75
2023-12-09T01:56:04.043Z,86.70
2023-12-09T01:58:31.846Z,102.32
2023-12-09T02:00:59.528Z,105.55
2023-12-09T02:03:27.241Z,108.97
2023-12-09T02:05:56.326Z,104.60
2023-12-09T02:08:23.921Z,107.90
2023-12-09T02:11:00.796Z,104.22
2023-12-09T02:13:34.871Z,104.13
2023-12-09T02:16:06.643Z,107.03
2023-12-09T02:21:03.937Z,112.95
2023-12-09T02:23:32.759Z,99.30
2023-12-09T02:26:07.189Z,94.25
2023-12-09T02:28:37.089Z,102.85
2023-12-09T02:31:11.308Z,97.95
2023-12-09T02:33:39.451Z,105.05
2023-12-09T02:36:08.305Z,107.55
2023-12-09T02:38:38.902Z,98.97
2023-12-09T02:41:08.010Z,114.47
2023-12-09T02:43:35.540Z,101.53
2023-12-09T02:46:03.155Z,105.75
2023-12-09T02:48:30.892Z,108.03
2023-12-09T02:50:58.560Z,100.88
2023-12-09T02:53:27.338Z,102.75
2023-12-09T02:55:56.224Z,98.03
2023-12-09T02:58:23.793Z,99.60
2023-12-09T03:00:51.563Z,97.35
2023-12-09T03:03:19.238Z,101.35
2023-12-09T03:05:46.859Z,100.40
2023-12-09T03:08:14.451Z,98.55
2023-12-09T03:10:42.339Z,106.53
2023-12-09T03:13:11.292Z,101.75
2023-12-09T03:15:38.929Z,105.18
2023-12-09T03:18:06.587Z,120.53
2023-12-09T03:20:34.169Z,110.43
2023-12-09T03:23:01.702Z,115.85
2023-12-09T03:25:29.306Z,109.90
2023-12-09T03:27:58.479Z,120.00
2023-12-09T03:30:29.479Z,122.05
2023-12-09T03:32:57.170Z,128.32
2023-12-09T03:35:24.739Z,145.35
2023-12-09T03:37:52.298Z,153.45
2023-12-09T03:40:19.844Z,143.18
2023-12-09T03:42:47.399Z,139.68
2023-12-09T03:45:15.000Z,139.60
2023-12-09T03:47:44.094Z,133.27
2023-12-09T03:50:12.020Z,135.93
2023-12-09T03:52:39.531Z,133.95
2023-12-09T03:55:07.719Z,133.35
2023-12-09T03:57:35.420Z,137.82
2023-12-09T04:00:05.236Z,137.88
2023-12-09T04:02:32.823Z,141.98
2023-12-09T04:05:01.718Z,141.70
2023-12-09T04:07:31.770Z,146.38
2023-12-09T04:09:59.951Z,148.30
2023-12-09T04:12:27.819Z,155.35
2023-12-09T04:14:55.624Z,144.05
2023-12-09T04:17:23.364Z,152.77
2023-12-09T04:19:52.836Z,146.90
2023-12-09T04:22:21.916Z,155.32
2023-12-09T04:24:49.528Z,127.85
2023-12-09T04:27:17.909Z,126.95
2023-12-09T04:29:45.527Z,150.40
2023-12-09T04:32:13.245Z,153.93
2023-12-09T04:34:41.037Z,171.60
2023-12-09T04:37:08.687Z,184.82
2023-12-09T04:39:37.752Z,195.85
2023-12-09T04:42:05.750Z,207.02
2023-12-09T04:44:33.368Z,175.15
2023-12-09T04:47:01.887Z,189.60
2023-12-09T04:49:30.349Z,208.63
2023-12-09T04:51:57.973Z,181.00
2023-12-09T04:54:25.983Z,204.13
2023-12-09T04:56:55.347Z,216.27
2023-12-09T04:59:23.063Z,210.55
2023-12-09T05:01:50.884Z,213.60
2023-12-09T05:04:18.769Z,202.00
2023-12-09T05:06:46.548Z,207.93
2023-12-09T05:09:14.587Z,213.48
2023-12-09T05:11:42.488Z,201.00
2023-12-09T05:14:11.484Z,200.07
2023-12-09T05:16:39.140Z,178.15
2023-12-09T05:19:08.333Z,190.32
2023-12-09T05:21:36.797Z,177.77
2023-12-09T05:24:05.533Z,181.85
2023-12-09T05:26:34.781Z,170.75
2023-12-09T05:29:02.429Z,187.00
2023-12-09T05:31:31.577Z,180.60
2023-12-09T05:33:59.249Z,169.95
2023-12-09T05:36:26.978Z,161.38
2023-12-09T05:38:54.763Z,191.98
2023-12-09T05:41:22.965Z,182.63
2023-12-09T05:43:50.439Z,176.27
2023-12-09T05:46:21.592Z,183.43
2023-12-09T05:48:51.379Z,178.40
2023-12-09T05:51:19.078Z,192.75
2023-12-09T05:53:46.603Z,198.20
2023-12-09T05:56:14.169Z,204.20
2023-12-09T05:58:41.771Z,184.52
2023-12-09T06:01:10.035Z,202.05
2023-12-09T06:03:37.941Z,206.07
2023-12-09T06:06:08.002Z,191.95
2023-12-09T06:08:35.602Z,193.27
2023-12-09T06:11:03.269Z,179.68
2023-12-09T06:13:31.487Z,191.30
2023-12-09T06:15:59.140Z,205.07
2023-12-09T06:18:27.302Z,203.57
2023-12-09T06:20:55.307Z,190.13
2023-12-09T06:23:24.328Z,204.93
2023-12-09T06:25:51.915Z,200.77
2023-12-09T06:28:19.456Z,204.18
2023-12-09T06:30:47.249Z,189.23
2023-12-09T06:33:15.064Z,192.35
2023-12-09T06:35:43.356Z,201.32
2023-12-09T06:38:10.947Z,178.70
2023-12-09T06:40:40.113Z,153.50
2023-12-09T06:43:07.777Z,164.25
2023-12-09T06:45:35.366Z,163.75
2023-12-09T06:48:03.327Z,174.23
2023-12-09T06:50:31.010Z,179.18
2023-12-09T06:52:58.499Z,164.35
2023-12-09T06:55:26.356Z,174.05
2023-12-09T06:57:55.455Z,179.93
2023-12-09T07:00:23.296Z,185.00
2023-12-09T07:02:58.798Z,163.48
2023-12-09T07:05:28.291Z,178.88
2023-12-09T07:07:56.523Z,193.65
2023-12-09T07:10:24.232Z,171.50
2023-12-09T07:12:51.877Z,183.23
2023-12-09T07:15:21.748Z,173.23
2023-12-09T07:17:49.601Z,176.98
2023-12-09T07:20:17.340Z,165.30
2023-12-09T07:22:45.562Z,162.90
2023-12-09T07:25:13.329Z,168.23
2023-12-09T07:27:40.981Z,170.15
2023-12-09T07:30:09.528Z,176.43
2023-12-09T07:32:38.663Z,158.15
2023-12-09T07:35:07.348Z,159.50
2023-12-09T07:37:34.973Z,151.95
2023-12-09T07:40:05.880Z,140.15
2023-12-09T07:42:33.518Z,117.70
2023-12-09T07:45:01.300Z,144.23
2023-12-09T07:47:28.863Z,138.40
2023-12-09T07:49:57.764Z,141.98
2023-12-09T07:52:25.599Z,126.60
2023-12-09T07:54:53.421Z,114.78
2023-12-09T07:57:21.543Z,123.43
2023-12-09T07:59:49.316Z,120.07
2023-12-09T08:02:16.966Z,121.55
2023-12-09T08:04:44.615Z,121.30
2023-12-09T08:07:13.917Z,92.35
2023-12-09T08:09:41.742Z,85.10
2023-12-09T08:12:09.939Z,103.82
2023-12-09T08:14:37.752Z,97.80
2023-12-09T08:17:06.015Z,99.20
2023-12-09T08:19:33.940Z,94.57
2023-12-09T08:22:02.186Z,93.60
2023-12-09T08:24:31.287Z,89.07
2023-12-09T08:26:59.171Z,85.47
2023-12-09T08:29:29.741Z,86.18
2023-12-09T08:31:58.233Z,90.20
2023-12-09T08:34:28.615Z,86.30
2023-12-09T08:36:56.724Z,97.07
2023-12-09T08:39:24.757Z,95.13
2023-12-09T08:42:01.324Z,86.25
2023-12-09T08:44:29.059Z,85.10
2023-12-09T08:46:57.584Z,83.93
2023-12-09T08:49:28.610Z,77.40
2023-12-09T08:51:56.368Z,82.78
2023-12-09T08:54:24.161Z,82.60
2023-12-09T08:56:53.195Z,74.72
2023-12-09T08:59:20.844Z,75.28
2023-12-09T09:01:48.686Z,80.32
2023-12-09T09:04:16.986Z,77.07
2023-12-09T09:06:44.798Z,73.72
2023-12-09T09:09:12.992Z,67.63
2023-12-09T09:11:40.633Z,72.57
2023-12-09T09:14:09.542Z,69.30
2023-12-09T09:16:37.260Z,75.70
2023-12-09T09:19:07.164Z,72.25
2023-12-09T09:21:34.983Z,77.72
2023-12-09T09:24:03.653Z,78.07
2023-12-09T09:26:31.291Z,66.30
2023-12-09T09:28:59.050Z,70.15
2023-12-09T09:31:28.144Z,68.50
2023-12-09T09:33:56.237Z,69.72
2023-12-09T09:36:24.219Z,64.80
2023-12-09T09:38:52.415Z,68.47
2023-12-09T09:41:24.391Z,69.03
2023-12-09T09:44:00.194Z,69.15
2023-12-09T09:46:29.503Z,67.72
2023-12-09T09:48:56.754Z,62.08
2023-12-09T09:51:27.925Z,66.97
2023-12-09T09:54:05.129Z,45.67
2023-12-09T09:56:33.691Z,63.83
2023-12-09T09:59:01.340Z,56.78
2023-12-09T10:01:32.128Z,57.78
2023-12-09T10:03:59.946Z,55.42
2023-12-09T10:06:27.689Z,56.30
2023-12-09T10:08:55.957Z,52.55
2023-12-09T10:11:23.465Z,53.58
2023-12-09T10:13:51.973Z,55.78
2023-12-09T10:16:19.515Z,47.03
2023-12-09T10:18:49.033Z,54.70
2023-12-09T10:21:17.490Z,52.88
2023-12-09T10:23:46.720Z,52.22
2023-12-09T10:26:14.653Z,58.10
2023-12-09T10:28:42.640Z,50.75
2023-12-09T10:31:10.755Z,51.53
2023-12-09T10:33:38.645Z,54.70
2023-12-09T10:36:09.766Z,53.40
2023-12-09T10:38:43.213Z,48.13
2023-12-09T10:41:11.174Z,55.53
2023-12-09T10:43:38.780Z,47.78
2023-12-09T10:46:06.893Z,46.25
2023-12-09T10:48:34.609Z,47.30
2023-12-09T10:51:02.764Z,49.30
2023-12-09T10:53:31.737Z,49.42
2023-12-09T10:56:00.100Z,46.40
2023-12-09T10:58:28.566Z,43.78
2023-12-09T11:00:59.124Z,38.10
2023-12-09T11:03:27.395Z,49.33
2023-12-09T11:05:56.146Z,41.83
2023-12-09T11:08:24.935Z,45.75
2023-12-09T11:10:54.142Z,39.13
2023-12-09T11:13:21.712Z,33.83
2023-12-09T11:15:49.398Z,34.03
2023-12-09T11:18:18.766Z,39.08
2023-12-09T11:20:47.875Z,36.50
2023-12-09T11:23:15.757Z,33.65
2023-12-09T11:25:44.218Z,28.83
2023-12-09T11:28:14.124Z,36.47
2023-12-09T11:30:43.316Z,29.83
2023-12-09T11:33:11.296Z,29.50
2023-12-09T11:35:39.713Z,32.20
2023-12-09T11:38:09.950Z,30.88
2023-12-09T11:40:37.752Z,32.15
2023-12-09T11:43:07.705Z,34.45
2023-12-09T11:45:38.111Z,31.20
2023-12-09T11:48:07.017Z,32.75
2023-12-09T11:50:35.278Z,35.92
2023-12-09T11:53:02.923Z,30.40
2023-12-09T11:55:32.752Z,27.05
2023-12-09T11:58:00.567Z,35.95
2023-12-09T12:00:28.284Z,26.85
2023-12-09T12:02:57.286Z,31.38
2023-12-09T12:05:27.299Z,26.83
2023-12-09T12:07:55.121Z,31.00
2023-12-09T12:10:22.902Z,34.00
2023-12-09T12:12:50.553Z,24.40
2023-12-09T12:15:18.758Z,25.40
2023-12-09T12:17:46.699Z,25.70
2023-12-09T12:20:15.652Z,24.83
2023-12-09T12:22:43.596Z,27.33
2023-12-09T12:25:11.774Z,30.63
2023-12-09T12:27:44.103Z,27.33
2023-12-09T12:30:31.831Z,25.38
2023-12-09T12:32:59.833Z,24.70
2023-12-09T12:35:29.403Z,29.50
2023-12-09T12:37:57.846Z,30.27
2023-12-09T12:40:30.657Z,26.35
2023-12-09T12:42:58.598Z,20.95
2023-12-09T12:45:33.559Z,27.85
2023-12-09T12:48:01.750Z,24.52
2023-12-09T12:50:38.438Z,26.40
2023-12-09T12:53:07.276Z,26.48
2023-12-09T12:55:38.276Z,23.40
2023-12-09T12:58:08.619Z,27.40
2023-12-09T13:00:40.804Z,24.27
2023-12-09T13:03:14.621Z,25.60
2023-12-09T13:05:43.760Z,23.00
2023-12-09T13:08:11.722Z,21.13
2023-12-09T13:10:39.459Z,23.48
2023-12-09T13:13:08.962Z,19.75
2023-12-09T13:15:36.936Z,20.70
2023-12-09T13:18:07.435Z,21.10
2023-12-09T13:20:39.070Z,18.70
2023-12-09T13:23:12.726Z,22.45
2023-12-09T13:25:40.332Z,17.52
2023-12-09T13:28:07.992Z,13.85
2023-12-09T13:30:35.715Z,17.85
2023-12-09T13:33:04.037Z,14.52
2023-12-09T13:35:34.375Z,13.80
2023-12-09T13:38:03.759Z,13.88
2023-12-09T13:40:32.984Z,14.85
2023-12-09T13:43:00.773Z,16.50
2023-12-09T13:45:37.310Z,16.67
2023-12-09T13:48:06.091Z,15.95
2023-12-09T13:50:35.630Z,14.75
2023-12-09T13:53:04.216Z,12.48
2023-12-09T13:55:33.291Z,17.65
2023-12-09T13:58:00.999Z,22.33
2023-12-09T14:00:28.802Z,13.50
2023-12-09T14:02:57.306Z,17.15
2023-12-09T14:05:25.222Z,15.90
2023-12-09T14:07:53.259Z,14.93
2023-12-09T14:10:21.613Z,13.35
2023-12-09T14:12:50.603Z,19.02
2023-12-09T14:15:18.355Z,18.25
2023-12-09T14:17:46.153Z,19.77
2023-12-09T14:20:17.107Z,13.48
2023-12-09T14:22:46.189Z,11.43
2023-12-09T14:25:14.115Z,14.35
2023-12-09T14:27:42.152Z,16.73
2023-12-09T14:30:12.934Z,15.95
2023-12-09T14:32:46.868Z,10.30
2023-12-09T14:35:15.890Z,13.38
2023-12-09T14:37:52.739Z,18.58
2023-12-09T14:40:26.570Z,13.02
2023-12-09T14:42:56.366Z,17.02
2023-12-09T14:45:25.911Z,14.70
2023-12-09T14:48:01.731Z,13.98
2023-12-09T14:50:40.968Z,18.40
2023-12-09T14:55:53.392Z,13.05
2023-12-09T14:58:23.900Z,14.03
2023-12-09T15:00:57.623Z,15.05
2023-12-09T15:03:25.334Z,15.23
2023-12-09T15:05:53.238Z,18.52
2023-12-09T15:08:25.076Z,23.65
2023-12-09T15:13:22.317Z,17.25
2023-12-09T15:15:50.107Z,17.05
2023-12-09T15:18:22.266Z,23.65
2023-12-09T15:20:52.116Z,14.82
2023-12-09T15:23:19.681Z,19.60
2023-12-09T15:25:47.997Z,21.35
2023-12-09T15:28:16.323Z,18.13
2023-12-09T15:30:44.716Z,15.18
2023-12-09T15:33:12.456Z,18.33
2023-12-09T15:35:41.566Z,19.60
2023-12-09T15:38:12.283Z,22.52
2023-12-09T15:40:39.842Z,22.40
2023-12-09T15:43:06.514Z,17.67
2023-12-09T15:45:34.195Z,18.17
2023-12-09T15:48:02.417Z,20.90
2023-12-09T15:50:30.136Z,22.38
2023-12-09T15:52:59.059Z,23.95
2023-12-09T15:55:26.669Z,24.85
2023-12-09T15:57:58.865Z,21.55
2023-12-09T16:00:26.508Z,24.20
2023-12-09T16:02:56.776Z,24.25
2023-12-09T16:05:25.020Z,29.55
2023-12-09T16:07:52.834Z,25.98
2023-12-09T16:10:21.910Z,27.70
2023-12-09T16:12:49.609Z,31.13
2023-12-09T16:15:19.001Z,30.15
2023-12-09T16:17:48.337Z,33.00
2023-12-09T16:20:16.849Z,34.22
2023-12-09T16:22:44.843Z,32.13
2023-12-09T16:25:12.644Z,34.05
2023-12-09T16:27:41.739Z,32.92
2023-12-09T16:30:11.906Z,34.63
2023-12-09T16:32:39.875Z,30.98
2023-12-09T16:35:08.505Z,30.40
2023-12-09T16:37:40.233Z,39.20
2023-12-09T16:42:38.474Z,37.80
2023-12-09T16:45:12.286Z,39.05
2023-12-09T16:47:41.246Z,36.90
2023-12-09T16:50:11.954Z,37.97
2023-12-09T16:52:40.092Z,36.75
2023-12-09T16:55:08.567Z,42.20
2023-12-09T16:57:36.214Z,49.15
2023-12-09T17:00:05.441Z,44.65
2023-12-09T17:02:34.454Z,40.72
2023-12-09T17:05:02.306Z,43.00
2023-12-09T17:07:30.060Z,43.80
2023-12-09T17:09:57.654Z,43.17
2023-12-09T17:12:25.385Z,42.42
2023-12-09T17:14:53.122Z,46.92
2023-12-09T17:17:20.730Z,49.30
2023-12-09T17:19:53.071Z,40.42
2023-12-09T17:22:20.590Z,48.08
2023-12-09T17:24:48.364Z,41.80
2023-12-09T17:27:16.124Z,40.63
2023-12-09T17:29:45.012Z,42.22
2023-12-09T17:32:13.942Z,47.85
2023-12-09T17:34:41.721Z,45.63
2023-12-09T17:37:10.754Z,43.78
2023-12-09T17:39:39.010Z,41.80
2023-12-09T17:42:08.644Z,42.03
2023-12-09T17:44:36.352Z,42.20
2023-12-09T17:47:04.289Z,39.50
2023-12-09T17:49:32.038Z,44.75
2023-12-09T17:52:01.236Z,47.58
2023-12-09T17:54:30.553Z,48.40
2023-12-09T17:56:58.112Z,45.25
2023-12-09T17:59:26.275Z,42.00
2023-12-09T18:02:06.645Z,40.63
2023-12-09T18:04:37.217Z,43.08
2023-12-09T18:07:12.765Z,44.58
2023-12-09T18:09:49.555Z,41.83
2023-12-09T18:12:21.015Z,41.95
2023-12-09T18:14:48.824Z,48.88
2023-12-09T18:17:28.760Z,44.72
2023-12-09T18:19:57.094Z,45.35
2023-12-09T18:22:24.705Z,48.15
2023-12-09T18:24:53.752Z,42.50
2023-12-09T18:27:21.529Z,48.72
2023-12-09T18:29:49.190Z,48.05
2023-12-09T18:32:17.092Z,47.53
2023-12-09T18:34:45.019Z,51.03
2023-12-09T18:37:13.161Z,48.92
2023-12-09T18:39:40.767Z,53.95
2023-12-09T18:42:10.528Z,45.80
2023-12-09T18:44:38.185Z,45.78
2023-12-09T18:47:06.009Z,44.20
2023-12-09T18:49:33.622Z,45.83
2023-12-09T18:52:01.279Z,48.10
2023-12-09T18:54:28.911Z,50.65
2023-12-09T18:56:56.500Z,47.33
2023-12-09T18:59:25.441Z,47.13
2023-12-09T19:02:01.671Z,44.10
2023-12-09T19:04:43.033Z,44.88
2023-12-09T19:07:43.049Z,43.30
2023-12-09T19:14:06.309Z,44.20
2023-12-09T19:16:38.164Z,46.88
2023-12-09T19:19:25.069Z,45.63
2023-12-09T19:22:07.135Z,43.92
2023-12-09T19:27:15.321Z,43.38
2023-12-09T19:29:45.937Z,42.35
2023-12-09T19:32:22.579Z,39.22
2023-12-09T20:08:46.570Z,43.95
2023-12-09T20:14:45.933Z,40.47
2023-12-09T20:17:36.971Z,41.75
2023-12-09T20:20:30.168Z,43.47
2023-12-09T20:26:25.161Z,37.75
2023-12-09T20:29:08.795Z,34.13
2023-12-09T20:32:04.399Z,37.78
2023-12-09T20:34:49.044Z,38.83
2023-12-09T20:37:22.857Z,41.50
2023-12-09T20:40:01.365Z,35.97
2023-12-09T20:42:45.221Z,38.13
2023-12-09T20:45:50.909Z,39.83
2023-12-09T20:48:32.727Z,36.28
2023-12-09T21:04:14.239Z,42.97
2023-12-09T21:06:42.181Z,41.70
2023-12-09T21:09:37.866Z,41.55
2023-12-09T21:12:50.312Z,39.63
2023-12-09T21:18:38.771Z,41.55
2023-12-09T21:22:20.138Z,47.67
2023-12-09T21:24:50.056Z,41.90
2023-12-09T21:27:36.620Z,43.78
2023-12-09T21:33:49.478Z,39.88
2023-12-09T21:40:13.359Z,35.63
2023-12-09T21:42:46.675Z,31.75
2023-12-09T21:45:15.703Z,36.35
2023-12-09T21:47:44.061Z,32.00
2023-12-09T21:50:16.795Z,34.55
2023-12-09T21:52:47.760Z,30.17
2023-12-09T21:55:40.969Z,29.40
2023-12-09T21:59:00.223Z,30.17
2023-12-09T22:05:41.388Z,25.08
2023-12-09T22:08:08.929Z,25.98
2023-12-09T22:10:37.869Z,30.58
2023-12-09T22:13:06.521Z,30.33
2023-12-09T22:15:34.203Z,27.70
2023-12-09T22:18:01.962Z,27.42
2023-12-09T22:20:32.065Z,28.77
2023-12-09T22:22:59.839Z,28.80
2023-12-09T22:25:27.610Z,30.25
2023-12-09T22:27:55.268Z,28.42
2023-12-09T22:30:22.845Z,26.70
2023-12-09T22:32:50.547Z,29.73
2023-12-09T22:35:18.175Z,29.50
2023-12-09T22:37:47.072Z,27.60
2023-12-09T22:40:14.904Z,28.42
2023-12-09T22:42:42.551Z,25.60
2023-12-09T22:45:11.530Z,29.10
2023-12-09T22:47:39.398Z,27.98
2023-12-09T22:50:08.439Z,29.17
2023-12-09T22:52:36.041Z,25.63
2023-12-09T22:55:05.815Z,27.48
2023-12-09T22:57:33.377Z,25.20
2023-12-09T23:00:00.982Z,22.00
2023-12-09T23:02:28.802Z,24.35
2023-12-09T23:04:56.549Z,28.20
2023-12-09T23:07:24.292Z,28.00
2023-12-09T23:09:51.984Z,22.80
2023-12-09T23:12:21.061Z,23.70
2023-12-09T23:14:48.733Z,25.10
2023-12-09T23:17:16.289Z,24.92
2023-12-09T23:19:46.769Z,25.08
2023-12-09T23:22:14.567Z,24.48
2023-12-09T23:24:42.504Z,26.70
2023-12-09T23:27:10.194Z,27.20
2023-12-09T23:29:39.133Z,26.45
2023-12-09T23:32:07.120Z,24.63
2023-12-09T23:34:34.805Z,28.35
2023-12-09T23:37:02.421Z,29.23
2023-12-09T23:39:30.015Z,28.02
2023-12-09T23:41:57.594Z,27.75
2023-12-09T23:44:25.084Z,27.92
2023-12-09T23:46:53.962Z,30.27
2023-12-09T23:49:21.721Z,30.58
2023-12-09T23:51:49.532Z,28.48
2023-12-09T23:54:17.185Z,28.02
2023-12-09T23:56:45.766Z,25.85
2023-12-09T23:59:13.460Z,30.38
